createdAt,value
2019-03-27T00:00:04.420Z,4.37
2019-03-27T00:02:35.330Z,4.07
2019-03-27T00:05:06.350Z,4.17
2019-03-27T00:07:37.093Z,4.40
2019-03-27T00:10:08.983Z,4.13
2019-03-27T00:12:39.767Z,4.37
2019-03-27T00:15:13.656Z,4.40
2019-03-27T00:17:44.147Z,4.07
2019-03-27T00:20:15.269Z,5.03
2019-03-27T00:22:46.105Z,4.53
2019-03-27T00:25:16.970Z,4.70
2019-03-27T00:27:47.663Z,4.80
2019-03-27T00:30:19.660Z,4.90
2019-03-27T00:32:50.407Z,4.97
2019-03-27T00:35:21.206Z,4.70
2019-03-27T00:37:51.921Z,4.37
2019-03-27T00:40:22.694Z,4.93
2019-03-27T00:42:53.405Z,4.47
2019-03-27T00:45:26.720Z,5.47
2019-03-27T00:47:56.338Z,4.60
2019-03-27T00:50:27.049Z,5.03
2019-03-27T00:52:57.656Z,5.10
2019-03-27T00:55:28.346Z,5.10
2019-03-27T00:57:59.074Z,5.10
2019-03-27T01:00:35.401Z,5.47
2019-03-27T01:03:06.111Z,5.73
2019-03-27T01:05:36.850Z,5.37
2019-03-27T01:08:07.641Z,5.90
2019-03-27T01:10:38.433Z,5.27
2019-03-27T01:13:09.138Z,5.30
2019-03-27T01:15:40.387Z,6.33
2019-03-27T01:18:11.219Z,5.20
2019-03-27T01:20:41.954Z,5.30
2019-03-27T01:23:12.773Z,5.87
2019-03-27T01:25:43.538Z,5.20
2019-03-27T01:28:14.588Z,5.30
2019-03-27T01:30:45.253Z,5.53
2019-03-27T01:33:15.951Z,5.90
2019-03-27T01:35:46.669Z,6.57
2019-03-27T01:38:17.351Z,6.00
2019-03-27T01:40:48.034Z,6.00
2019-03-27T01:43:18.677Z,6.00
2019-03-27T01:45:53.166Z,6.27
2019-03-27T01:48:21.954Z,5.77
2019-03-27T01:50:52.838Z,6.13
2019-03-27T01:53:23.549Z,6.87
2019-03-27T01:55:54.391Z,6.53
2019-03-27T01:58:25.156Z,6.50
2019-03-27T02:00:55.931Z,6.60
2019-03-27T02:03:26.675Z,6.37
2019-03-27T02:05:57.491Z,6.60
2019-03-27T02:08:28.367Z,6.40
2019-03-27T02:10:59.078Z,6.83
2019-03-27T02:13:29.884Z,7.67
2019-03-27T02:16:06.722Z,5.97
2019-03-27T02:18:32.996Z,6.93
2019-03-27T02:21:03.899Z,6.00
2019-03-27T02:23:34.762Z,6.20
2019-03-27T02:26:05.606Z,5.93
2019-03-27T02:28:36.380Z,6.37
2019-03-27T02:31:07.202Z,6.07
2019-03-27T02:33:37.998Z,5.90
2019-03-27T02:36:08.784Z,6.57
2019-03-27T02:38:39.622Z,6.17
2019-03-27T02:41:10.400Z,6.40
2019-03-27T02:43:41.171Z,5.90
2019-03-27T02:46:24.352Z,5.80
2019-03-27T02:48:44.171Z,6.20
2019-03-27T02:51:15.072Z,6.00
2019-03-27T02:53:45.895Z,6.80
2019-03-27T02:56:16.750Z,6.43
2019-03-27T02:58:47.549Z,6.50
2019-03-27T03:01:18.266Z,6.43
2019-03-27T03:03:49.073Z,6.90
2019-03-27T03:06:19.727Z,6.23
2019-03-27T03:08:50.354Z,5.90
2019-03-27T03:11:20.989Z,6.30
2019-03-27T03:13:51.703Z,6.50
2019-03-27T03:16:22.450Z,6.03
2019-03-27T03:18:53.237Z,6.03
2019-03-27T03:21:24.137Z,5.53
2019-03-27T03:23:54.750Z,6.50
2019-03-27T03:26:25.703Z,6.50
2019-03-27T03:28:56.356Z,6.87
2019-03-27T03:31:27.073Z,7.77
2019-03-27T03:33:57.968Z,7.77
2019-03-27T03:36:28.840Z,6.87
2019-03-27T03:38:59.614Z,6.20
2019-03-27T03:41:30.463Z,5.90
2019-03-27T03:44:01.239Z,6.77
2019-03-27T03:46:31.963Z,6.90
2019-03-27T03:49:04.733Z,7.50
2019-03-27T03:51:38.974Z,7.00
2019-03-27T03:54:10.447Z,7.33
2019-03-27T03:56:43.028Z,6.97
2019-03-27T03:59:15.650Z,7.20
2019-03-27T04:01:50.443Z,7.57
2019-03-27T04:04:23.285Z,7.57
2019-03-27T04:06:54.015Z,7.77
2019-03-27T04:09:24.756Z,6.97
2019-03-27T04:11:55.623Z,6.43
2019-03-27T04:14:26.430Z,6.43
2019-03-27T04:17:15.512Z,6.50
2019-03-27T04:19:30.441Z,6.87
2019-03-27T04:22:01.291Z,7.07
2019-03-27T04:24:32.020Z,7.57
2019-03-27T04:27:02.681Z,5.77
2019-03-27T04:29:33.476Z,7.40
2019-03-27T04:32:04.246Z,7.80
2019-03-27T04:34:35.166Z,7.27
2019-03-27T04:37:05.979Z,8.37
2019-03-27T04:39:36.714Z,7.63
2019-03-27T04:42:07.499Z,7.23
2019-03-27T04:44:38.285Z,7.73
2019-03-27T04:47:09.003Z,6.57
2019-03-27T04:49:39.801Z,7.50
2019-03-27T04:52:10.598Z,8.07
2019-03-27T04:54:41.214Z,7.70
2019-03-27T04:57:12.022Z,8.67
2019-03-27T04:59:42.717Z,8.00
2019-03-27T05:02:13.318Z,7.43
2019-03-27T05:04:44.229Z,8.13
2019-03-27T05:07:15.042Z,7.93
2019-03-27T05:09:45.778Z,9.27
2019-03-27T05:12:16.625Z,7.83
2019-03-27T05:14:47.386Z,7.83
2019-03-27T05:17:18.227Z,8.43
2019-03-27T05:19:49.030Z,8.80
2019-03-27T05:22:19.794Z,8.23
2019-03-27T05:24:50.642Z,7.93
2019-03-27T05:27:21.417Z,8.47
2019-03-27T05:29:52.082Z,8.33
2019-03-27T05:32:22.711Z,9.50
2019-03-27T05:34:53.442Z,8.43
2019-03-27T05:37:24.349Z,8.10
2019-03-27T05:39:55.185Z,7.50
2019-03-27T05:42:25.928Z,6.90
2019-03-27T05:44:56.705Z,17.60
2019-03-27T05:47:27.438Z,7.77
2019-03-27T05:49:58.240Z,8.17
2019-03-27T05:52:29.029Z,7.80
2019-03-27T05:54:59.773Z,7.60
2019-03-27T05:57:30.868Z,7.63
2019-03-27T06:00:01.676Z,8.07
2019-03-27T06:02:32.345Z,7.47
2019-03-27T06:05:04.091Z,7.83
2019-03-27T06:07:34.931Z,7.20
2019-03-27T06:10:05.970Z,6.60
2019-03-27T06:12:36.812Z,7.20
2019-03-27T06:15:13.155Z,7.30
2019-03-27T06:17:43.946Z,7.53
2019-03-27T06:20:14.662Z,6.90
2019-03-27T06:22:45.292Z,6.67
2019-03-27T06:25:16.052Z,7.53
2019-03-27T06:27:46.850Z,6.70
2019-03-27T06:30:17.475Z,6.77
2019-03-27T06:32:48.167Z,7.63
2019-03-27T06:35:20.303Z,6.73
2019-03-27T06:37:51.317Z,7.17
2019-03-27T06:40:22.082Z,7.10
2019-03-27T06:42:52.901Z,7.00
2019-03-27T06:45:23.688Z,6.77
2019-03-27T06:47:54.354Z,7.17
2019-03-27T06:50:25.096Z,7.20
2019-03-27T06:52:55.859Z,7.17
2019-03-27T06:55:26.669Z,7.50
2019-03-27T06:57:57.498Z,7.87
2019-03-27T07:00:38.666Z,7.83
2019-03-27T07:03:09.498Z,14.97
2019-03-27T07:05:40.233Z,20.23
2019-03-27T07:08:10.945Z,17.70
2019-03-27T07:10:50.936Z,8.93
2019-03-27T07:13:22.173Z,9.33
2019-03-27T07:15:52.798Z,12.53
2019-03-27T07:18:23.528Z,39.50
2019-03-27T07:20:54.909Z,24.43
2019-03-27T07:23:25.710Z,18.60
2019-03-27T07:25:56.455Z,20.23
2019-03-27T07:28:27.246Z,10.50
2019-03-27T07:30:58.126Z,12.17
2019-03-27T07:33:29.080Z,8.00
2019-03-27T07:36:00.705Z,7.93
2019-03-27T07:38:32.591Z,7.57
2019-03-27T07:41:03.439Z,7.37
2019-03-27T07:43:34.883Z,8.03
2019-03-27T07:46:07.381Z,8.27
2019-03-27T07:48:38.160Z,7.20
2019-03-27T07:51:08.893Z,7.20
2019-03-27T07:53:39.670Z,7.57
2019-03-27T07:56:10.463Z,7.73
2019-03-27T07:58:41.097Z,7.50
2019-03-27T08:01:11.877Z,6.27
2019-03-27T08:03:42.664Z,7.07
2019-03-27T08:06:13.406Z,6.40
2019-03-27T08:08:44.174Z,7.03
2019-03-27T08:11:14.992Z,7.30
2019-03-27T08:13:45.683Z,6.63
2019-03-27T08:16:16.404Z,7.00
2019-03-27T08:18:47.198Z,6.43
2019-03-27T08:21:18.053Z,6.17
2019-03-27T08:23:48.862Z,7.50
2019-03-27T08:26:19.773Z,6.60
2019-03-27T08:28:50.497Z,7.00
2019-03-27T08:31:21.314Z,8.30
2019-03-27T08:33:52.063Z,7.20
2019-03-27T08:36:22.843Z,7.37
2019-03-27T08:38:53.594Z,6.80
2019-03-27T08:41:24.271Z,7.03
2019-03-27T08:43:54.917Z,6.33
2019-03-27T08:46:25.602Z,6.40
2019-03-27T08:48:56.263Z,6.90
2019-03-27T08:51:26.986Z,5.80
2019-03-27T08:53:57.857Z,5.43
2019-03-27T08:56:28.610Z,6.77
2019-03-27T08:58:59.460Z,6.93
2019-03-27T09:01:30.357Z,6.17
2019-03-27T09:04:01.137Z,6.57
2019-03-27T09:06:34.115Z,6.73
2019-03-27T09:09:06.699Z,6.90
2019-03-27T09:11:37.592Z,5.93
2019-03-27T09:14:08.310Z,5.57
2019-03-27T09:16:39.121Z,6.10
2019-03-27T09:19:09.893Z,5.73
2019-03-27T09:21:40.614Z,6.37
2019-03-27T09:24:11.461Z,6.00
2019-03-27T09:26:42.298Z,5.90
2019-03-27T09:29:12.880Z,5.73
2019-03-27T09:31:45.166Z,5.07
2019-03-27T09:34:17.690Z,5.63
2019-03-27T09:36:48.507Z,5.53
2019-03-27T09:39:19.335Z,5.80
2019-03-27T09:41:50.046Z,5.53
2019-03-27T09:44:20.953Z,6.10
2019-03-27T09:46:51.732Z,6.03
2019-03-27T09:49:22.583Z,5.73
2019-03-27T09:51:53.369Z,5.20
2019-03-27T09:54:24.054Z,5.50
2019-03-27T09:56:54.688Z,5.67
2019-03-27T09:59:25.358Z,5.17
2019-03-27T10:01:56.072Z,5.47
2019-03-27T10:04:26.911Z,5.73
2019-03-27T10:06:57.822Z,5.23
2019-03-27T10:09:28.587Z,5.33
2019-03-27T10:11:59.334Z,5.63
2019-03-27T10:14:30.173Z,5.20
2019-03-27T10:17:00.954Z,4.97
2019-03-27T10:19:31.668Z,5.03
2019-03-27T10:22:02.216Z,5.00
2019-03-27T10:24:33.031Z,5.90
2019-03-27T10:27:03.670Z,5.63
2019-03-27T10:29:34.482Z,5.73
2019-03-27T10:32:05.351Z,4.60
2019-03-27T10:34:36.098Z,5.23
2019-03-27T10:37:06.797Z,5.50
2019-03-27T10:39:37.437Z,6.37
2019-03-27T10:42:08.089Z,5.50
2019-03-27T10:44:38.777Z,4.90
2019-03-27T10:47:09.533Z,4.80
2019-03-27T10:49:40.211Z,5.53
2019-03-27T10:52:10.972Z,5.40
2019-03-27T10:54:41.779Z,5.70
2019-03-27T10:57:12.610Z,5.60
2019-03-27T10:59:43.507Z,5.30
2019-03-27T11:02:14.189Z,5.30
2019-03-27T11:04:44.959Z,5.37
2019-03-27T11:07:15.759Z,5.33
2019-03-27T11:09:46.565Z,5.00
2019-03-27T11:12:17.300Z,5.57
2019-03-27T11:14:48.070Z,5.70
2019-03-27T11:17:18.960Z,5.50
2019-03-27T11:19:49.687Z,5.93
2019-03-27T11:22:20.482Z,5.47
2019-03-27T11:24:51.310Z,5.53
2019-03-27T11:27:22.128Z,5.63
2019-03-27T11:29:52.935Z,5.07
2019-03-27T11:32:23.676Z,5.40
2019-03-27T11:34:54.400Z,5.33
2019-03-27T11:37:25.189Z,6.03
2019-03-27T11:39:55.958Z,5.73
2019-03-27T11:42:28.016Z,5.10
2019-03-27T11:44:58.914Z,6.00
2019-03-27T11:47:29.295Z,5.60
2019-03-27T11:50:00.026Z,5.40
2019-03-27T11:52:30.716Z,5.50
2019-03-27T11:55:01.486Z,5.83
2019-03-27T11:57:32.210Z,5.50
2019-03-27T12:00:03.746Z,5.50
2019-03-27T12:02:34.814Z,5.83
2019-03-27T12:05:05.939Z,5.80
2019-03-27T12:07:36.776Z,5.10
2019-03-27T12:10:08.668Z,6.23
2019-03-27T12:12:39.369Z,5.90
2019-03-27T12:15:11.321Z,5.70
2019-03-27T12:17:42.174Z,5.40
2019-03-27T12:20:13.418Z,5.90
2019-03-27T12:22:56.947Z,5.73
2019-03-27T12:25:16.670Z,26.20
2019-03-27T12:27:47.434Z,6.77
2019-03-27T12:30:18.313Z,5.97
2019-03-27T12:32:49.057Z,5.63
2019-03-27T12:35:19.881Z,6.00
2019-03-27T12:37:50.611Z,5.60
2019-03-27T12:40:21.336Z,5.40
2019-03-27T12:42:52.141Z,5.43
2019-03-27T12:45:22.608Z,6.20
2019-03-27T12:47:53.238Z,5.50
2019-03-27T12:50:24.177Z,6.33
2019-03-27T12:52:55.001Z,5.75
2019-03-27T12:55:25.750Z,6.03
2019-03-27T12:57:56.450Z,6.50
2019-03-27T13:00:27.245Z,5.97
2019-03-27T13:02:58.173Z,6.30
2019-03-27T13:05:29.029Z,5.30
2019-03-27T13:08:00.014Z,6.05
2019-03-27T13:10:30.762Z,5.28
2019-03-27T13:13:01.517Z,6.20
2019-03-27T13:15:32.313Z,6.47
2019-03-27T13:18:03.067Z,5.42
2019-03-27T13:20:33.833Z,6.00
2019-03-27T13:23:05.126Z,5.87
2019-03-27T13:25:35.917Z,5.92
2019-03-27T13:28:06.751Z,5.90
2019-03-27T13:30:37.553Z,5.20
2019-03-27T13:33:08.165Z,5.67
2019-03-27T13:35:38.934Z,5.58
2019-03-27T13:38:09.719Z,5.58
2019-03-27T13:40:40.477Z,5.70
2019-03-27T13:43:11.269Z,5.55
2019-03-27T13:45:42.018Z,5.83
2019-03-27T13:48:12.782Z,5.60
2019-03-27T13:50:43.553Z,10.28
2019-03-27T13:53:14.249Z,5.70
2019-03-27T13:55:44.970Z,6.22
2019-03-27T13:58:15.781Z,5.53
2019-03-27T14:00:46.414Z,5.75
2019-03-27T14:03:17.111Z,5.80
2019-03-27T14:05:47.883Z,6.80
2019-03-27T14:08:18.639Z,5.95
2019-03-27T14:10:49.365Z,5.83
2019-03-27T14:13:20.051Z,6.53
2019-03-27T14:15:50.867Z,6.05
2019-03-27T14:18:21.719Z,6.20
2019-03-27T14:20:52.618Z,6.08
2019-03-27T14:23:23.338Z,5.22
2019-03-27T14:25:54.080Z,5.78
2019-03-27T14:28:24.910Z,5.65
2019-03-27T14:30:57.085Z,5.20
2019-03-27T14:33:27.819Z,6.70
2019-03-27T14:35:58.593Z,5.35
2019-03-27T14:38:29.399Z,6.17
2019-03-27T14:41:00.102Z,4.78
2019-03-27T14:43:30.899Z,5.15
2019-03-27T14:46:01.817Z,5.45
2019-03-27T14:48:32.623Z,5.72
2019-03-27T14:51:03.505Z,5.78
2019-03-27T14:53:34.346Z,4.70
2019-03-27T14:56:05.171Z,5.03
2019-03-27T14:58:36.073Z,5.30
2019-03-27T15:01:06.786Z,4.85
2019-03-27T15:03:37.519Z,4.78
2019-03-27T15:06:08.314Z,4.35
2019-03-27T15:08:38.998Z,4.37
2019-03-27T15:11:09.625Z,4.65
2019-03-27T15:13:40.426Z,4.00
2019-03-27T15:16:11.409Z,5.12
2019-03-27T15:18:42.148Z,4.50
2019-03-27T15:21:12.923Z,4.83
2019-03-27T15:23:44.667Z,4.97
2019-03-27T15:26:15.527Z,4.92
2019-03-27T15:28:51.090Z,4.45
2019-03-27T15:31:23.531Z,5.00
2019-03-27T15:33:55.731Z,4.95
2019-03-27T15:36:30.812Z,5.22
2019-03-27T15:39:04.641Z,5.75
2019-03-27T15:41:38.346Z,5.45
2019-03-27T15:44:09.119Z,4.90
2019-03-27T15:46:39.909Z,5.35
2019-03-27T15:49:10.750Z,5.17
2019-03-27T15:51:41.480Z,5.20
2019-03-27T15:54:12.374Z,4.97
2019-03-27T15:56:42.993Z,5.60
2019-03-27T15:59:13.842Z,6.03
2019-03-27T16:01:44.524Z,5.58
2019-03-27T16:04:15.331Z,5.70
2019-03-27T16:06:46.135Z,5.62
2019-03-27T16:09:17.796Z,6.55
2019-03-27T16:11:48.572Z,6.67
2019-03-27T16:14:19.352Z,5.45
2019-03-27T16:17:06.767Z,6.62
2019-03-27T16:19:22.562Z,5.20
2019-03-27T16:21:52.974Z,5.20
2019-03-27T16:24:23.777Z,5.03
2019-03-27T16:27:04.337Z,4.53
2019-03-27T16:29:27.087Z,5.30
2019-03-27T16:31:57.880Z,5.03
2019-03-27T16:34:28.594Z,5.10
2019-03-27T16:36:59.445Z,5.22
2019-03-27T16:39:30.151Z,5.00
2019-03-27T16:42:00.917Z,5.00
2019-03-27T16:44:31.599Z,5.72
2019-03-27T16:47:02.254Z,5.92
2019-03-27T16:49:32.875Z,5.40
2019-03-27T16:52:03.577Z,6.03
2019-03-27T16:54:34.247Z,5.62
2019-03-27T16:57:04.984Z,5.30
2019-03-27T16:59:35.762Z,5.47
2019-03-27T17:02:10.178Z,4.63
2019-03-27T17:04:40.977Z,4.73
2019-03-27T17:07:11.765Z,5.60
2019-03-27T17:09:42.538Z,5.77
2019-03-27T17:12:13.345Z,5.20
2019-03-27T17:14:44.120Z,6.27
2019-03-27T17:17:14.854Z,14.07
2019-03-27T17:19:45.646Z,8.43
2019-03-27T17:22:19.637Z,6.37
2019-03-27T17:24:48.886Z,5.30
2019-03-27T17:27:19.564Z,4.30
2019-03-27T17:29:50.255Z,4.20
2019-03-27T17:32:20.885Z,4.30
2019-03-27T17:34:52.071Z,4.27
2019-03-27T17:37:22.967Z,4.20
2019-03-27T17:39:53.682Z,4.43
2019-03-27T17:42:24.511Z,4.87
2019-03-27T17:44:55.309Z,4.60
2019-03-27T17:47:26.011Z,5.90
2019-03-27T17:49:57.058Z,5.97
2019-03-27T17:52:27.906Z,6.47
2019-03-27T17:54:58.710Z,5.90
2019-03-27T17:57:29.439Z,7.17
2019-03-27T18:00:00.099Z,6.53
2019-03-27T18:02:30.957Z,8.23
2019-03-27T18:05:04.686Z,9.73
2019-03-27T18:07:35.492Z,9.10
2019-03-27T18:10:06.442Z,7.37
2019-03-27T18:12:37.278Z,7.57
2019-03-27T18:15:08.544Z,7.00
2019-03-27T18:17:39.258Z,8.10
2019-03-27T18:20:10.305Z,8.23
2019-03-27T18:22:41.079Z,9.73
2019-03-27T18:25:15.175Z,10.00
2019-03-27T18:27:46.094Z,7.93
2019-03-27T18:30:17.127Z,7.60
2019-03-27T18:32:47.853Z,7.20
2019-03-27T18:35:18.656Z,7.73
2019-03-27T18:37:54.291Z,6.97
2019-03-27T18:40:26.230Z,7.70
2019-03-27T18:42:58.026Z,13.87
2019-03-27T18:45:28.808Z,12.53
2019-03-27T18:48:00.148Z,10.83
2019-03-27T18:50:31.769Z,14.40
2019-03-27T18:53:03.703Z,13.70
2019-03-27T18:55:35.467Z,12.27
2019-03-27T18:58:08.878Z,11.83
2019-03-27T19:00:40.223Z,10.27
2019-03-27T19:03:12.837Z,9.00
2019-03-27T19:05:45.409Z,10.73
2019-03-27T19:08:16.795Z,12.07
2019-03-27T19:10:48.781Z,13.17
2019-03-27T19:13:20.081Z,10.73
2019-03-27T19:15:51.610Z,11.60
2019-03-27T19:18:23.030Z,12.73
2019-03-27T19:20:55.475Z,10.17
2019-03-27T19:23:28.078Z,11.73
2019-03-27T19:25:59.013Z,8.90
2019-03-27T19:28:29.621Z,8.87
2019-03-27T19:31:00.257Z,9.97
2019-03-27T19:33:31.033Z,8.30
2019-03-27T19:36:01.741Z,7.90
2019-03-27T19:38:32.462Z,6.47
2019-03-27T19:41:03.169Z,7.33
2019-03-27T19:43:33.827Z,6.70
2019-03-27T19:46:04.543Z,6.87
2019-03-27T19:48:35.268Z,7.57
2019-03-27T19:51:06.083Z,8.40
2019-03-27T19:53:36.918Z,8.03
2019-03-27T19:56:07.747Z,8.17
2019-03-27T19:58:38.549Z,8.10
2019-03-27T20:01:09.790Z,8.93
2019-03-27T20:03:40.461Z,8.40
2019-03-27T20:06:11.358Z,8.27
2019-03-27T20:08:42.096Z,7.83
2019-03-27T20:11:12.783Z,7.33
2019-03-27T20:13:43.462Z,7.10
2019-03-27T20:16:14.132Z,6.80
2019-03-27T20:18:45.002Z,5.97
2019-03-27T20:21:15.805Z,6.60
2019-03-27T20:23:46.654Z,7.20
2019-03-27T20:26:17.461Z,6.93
2019-03-27T20:28:48.249Z,5.40
2019-03-27T20:31:18.963Z,6.17
2019-03-27T20:33:49.677Z,6.07
2019-03-27T20:36:20.570Z,6.73
2019-03-27T20:38:51.262Z,4.57
2019-03-27T20:41:22.050Z,5.43
2019-03-27T20:43:52.753Z,6.70
2019-03-27T20:46:25.397Z,5.13
2019-03-27T20:48:56.260Z,5.87
2019-03-27T20:51:27.011Z,7.13
2019-03-27T20:53:57.730Z,6.83
2019-03-27T20:56:28.440Z,7.27
2019-03-27T20:59:01.313Z,7.83
2019-03-27T21:01:31.633Z,7.83
2019-03-27T21:04:02.523Z,7.47
2019-03-27T21:06:33.241Z,7.10
2019-03-27T21:09:04.056Z,7.43
2019-03-27T21:11:34.974Z,6.63
2019-03-27T21:14:05.793Z,6.90
2019-03-27T21:16:36.716Z,6.53
2019-03-27T21:19:07.437Z,6.43
2019-03-27T21:21:38.163Z,6.87
2019-03-27T21:24:08.863Z,7.50
2019-03-27T21:26:39.673Z,7.23
2019-03-27T21:29:10.473Z,6.60
2019-03-27T21:31:41.257Z,8.10
2019-03-27T21:34:12.013Z,8.97
2019-03-27T21:36:42.770Z,8.77
2019-03-27T21:39:13.552Z,7.70
2019-03-27T21:41:44.396Z,7.90
2019-03-27T21:44:15.222Z,8.27
2019-03-27T21:46:46.121Z,8.40
2019-03-27T21:49:16.819Z,7.77
2019-03-27T21:51:47.570Z,7.90
2019-03-27T21:54:18.413Z,8.40
2019-03-27T21:56:49.121Z,8.33
2019-03-27T21:59:19.866Z,7.20
2019-03-27T22:01:50.647Z,8.20
2019-03-27T22:04:21.552Z,6.97
2019-03-27T22:06:52.273Z,7.67
2019-03-27T22:09:23.163Z,6.67
2019-03-27T22:11:54.086Z,7.10
2019-03-27T22:14:24.849Z,6.53
2019-03-27T22:16:55.716Z,6.60
2019-03-27T22:19:26.404Z,7.87
2019-03-27T22:21:57.183Z,7.13
2019-03-27T22:24:27.901Z,7.33
2019-03-27T22:26:58.542Z,7.43
2019-03-27T22:29:29.331Z,6.23
2019-03-27T22:32:00.078Z,6.83
2019-03-27T22:34:30.817Z,6.20
2019-03-27T22:37:01.514Z,5.60
2019-03-27T22:39:32.398Z,6.10
2019-03-27T22:42:03.101Z,6.17
2019-03-27T22:44:33.893Z,6.20
2019-03-27T22:47:04.693Z,5.80
2019-03-27T22:49:35.570Z,5.93
2019-03-27T22:52:06.289Z,6.90
2019-03-27T22:54:37.138Z,6.57
2019-03-27T22:57:07.973Z,5.97
2019-03-27T22:59:38.699Z,7.00
2019-03-27T23:02:09.680Z,5.67
2019-03-27T23:04:40.385Z,5.90
2019-03-27T23:07:11.019Z,6.20
2019-03-27T23:09:41.806Z,6.57
2019-03-27T23:12:12.614Z,6.97
2019-03-27T23:14:43.438Z,6.50
2019-03-27T23:17:14.328Z,7.00
2019-03-27T23:19:45.084Z,6.80
2019-03-27T23:22:15.818Z,7.37
2019-03-27T23:24:46.589Z,7.70
2019-03-27T23:27:17.384Z,6.80
2019-03-27T23:29:48.107Z,7.30
2019-03-27T23:32:18.875Z,7.13
2019-03-27T23:34:49.671Z,6.93
2019-03-27T23:37:20.559Z,7.50
2019-03-27T23:39:51.462Z,8.17
2019-03-27T23:42:22.241Z,6.73
2019-03-27T23:44:53.037Z,7.33
2019-03-27T23:47:23.841Z,7.63
2019-03-27T23:49:54.595Z,7.23
2019-03-27T23:52:25.203Z,7.10
2019-03-27T23:54:55.998Z,6.70
2019-03-27T23:57:26.785Z,6.43
2019-03-27T23:59:57.525Z,6.77
